sensor_id;sensor_type;location;lat;lon;timestamp;pressure;altitude;pressure_sealevel;temperature;humidity
68376;BME280;55318;52.068;5.188;2023-03-14T00:01:27;98891.0;;;12.26;84.9
68376;BME280;55318;52.068;5.188;2023-03-14T00:03:03;98893.0;;;12.26;84.39
68376;BME280;55318;52.068;5.188;2023-03-14T00:06:17;98896.0;;;12.25;83.87
68376;BME280;55318;52.068;5.188;2023-03-14T00:07:53;98891.0;;;12.39;83.7
68376;BME280;55318;52.068;5.188;2023-03-14T00:09:29;98893.0;;;12.28;83.92
68376;BME280;55318;52.068;5.188;2023-03-14T00:12:43;98892.0;;;12.4;83.9
68376;BME280;55318;52.068;5.188;2023-03-14T00:14:20;98888.0;;;12.4;83.8
68376;BME280;55318;52.068;5.188;2023-03-14T00:16:01;98887.0;;;12.35;83.45
68376;BME280;55318;52.068;5.188;2023-03-14T00:17:39;98894.0;;;12.28;83.34
68376;BME280;55318;52.068;5.188;2023-03-14T00:20:51;98895.0;;;12.33;82.97
68376;BME280;55318;52.068;5.188;2023-03-14T00:22:29;98889.0;;;12.29;82.75
68376;BME280;55318;52.068;5.188;2023-03-14T00:24:06;98893.0;;;12.22;82.27
68376;BME280;55318;52.068;5.188;2023-03-14T00:27:19;98894.0;;;12.2;81.41
68376;BME280;55318;52.068;5.188;2023-03-14T00:28:55;98905.0;;;12.08;81.75
68376;BME280;55318;52.068;5.188;2023-03-14T00:30:31;98887.0;;;12.05;81.93
68376;BME280;55318;52.068;5.188;2023-03-14T00:33:44;98899.0;;;12.06;82.25
68376;BME280;55318;52.068;5.188;2023-03-14T00:35:20;98888.0;;;12.25;81.2
68376;BME280;55318;52.068;5.188;2023-03-14T00:36:57;98894.0;;;12.18;80.77
68376;BME280;55318;52.068;5.188;2023-03-14T00:38:33;98901.0;;;12.21;80.55
68376;BME280;55318;52.068;5.188;2023-03-14T00:41:46;98900.0;;;12.3;80.52
68376;BME280;55318;52.068;5.188;2023-03-14T00:43:23;98905.0;;;12.41;80.06
68376;BME280;55318;52.068;5.188;2023-03-14T00:44:59;98907.0;;;12.26;80.08
68376;BME280;55318;52.068;5.188;2023-03-14T00:48:11;98905.0;;;12.15;80.98
68376;BME280;55318;52.068;5.188;2023-03-14T00:49:48;98898.0;;;12.15;80.99
68376;BME280;55318;52.068;5.188;2023-03-14T00:51:24;98894.0;;;12.24;80.63
68376;BME280;55318;52.068;5.188;2023-03-14T00:54:36;98895.0;;;12.3;80.81
68376;BME280;55318;52.068;5.188;2023-03-14T00:56:12;98906.0;;;12.23;81.96
68376;BME280;55318;52.068;5.188;2023-03-14T00:57:49;98898.0;;;12.03;83.22
68376;BME280;55318;52.068;5.188;2023-03-14T00:59:25;98901.0;;;12.19;83.33
68376;BME280;55318;52.068;5.188;2023-03-14T01:02:41;98900.0;;;11.94;84.11
68376;BME280;55318;52.068;5.188;2023-03-14T01:04:20;98905.0;;;11.79;85.17
68376;BME280;55318;52.068;5.188;2023-03-14T01:06:06;98896.0;;;11.78;85.86
68376;BME280;55318;52.068;5.188;2023-03-14T01:09:18;98914.0;;;11.68;86.72
68376;BME280;55318;52.068;5.188;2023-03-14T01:10:54;98920.0;;;11.61;87.92
68376;BME280;55318;52.068;5.188;2023-03-14T01:12:31;98916.0;;;11.49;89.2
68376;BME280;55318;52.068;5.188;2023-03-14T01:14:07;98914.0;;;11.52;89.88
68376;BME280;55318;52.068;5.188;2023-03-14T01:17:19;98916.0;;;11.36;91.16
68376;BME280;55318;52.068;5.188;2023-03-14T01:18:55;98916.0;;;11.34;92.18
68376;BME280;55318;52.068;5.188;2023-03-14T01:20:31;98911.0;;;11.22;93.34
68376;BME280;55318;52.068;5.188;2023-03-14T01:23:45;98919.0;;;11.26;93.19
68376;BME280;55318;52.068;5.188;2023-03-14T01:25:21;98918.0;;;11.0;94.76
68376;BME280;55318;52.068;5.188;2023-03-14T01:26:58;98919.0;;;10.93;95.38
68376;BME280;55318;52.068;5.188;2023-03-14T01:30:12;98914.0;;;10.93;95.47
68376;BME280;55318;52.068;5.188;2023-03-14T01:31:49;98916.0;;;10.86;95.58
68376;BME280;55318;52.068;5.188;2023-03-14T01:33:25;98913.0;;;11.06;94.99
68376;BME280;55318;52.068;5.188;2023-03-14T01:35:02;98905.0;;;10.94;95.08
68376;BME280;55318;52.068;5.188;2023-03-14T01:38:14;98901.0;;;10.98;95.35
68376;BME280;55318;52.068;5.188;2023-03-14T01:39:50;98902.0;;;10.97;94.83
68376;BME280;55318;52.068;5.188;2023-03-14T01:41:26;98894.0;;;11.02;94.74
68376;BME280;55318;52.068;5.188;2023-03-14T01:44:52;98895.0;;;11.08;93.85
68376;BME280;55318;52.068;5.188;2023-03-14T01:46:34;98893.0;;;11.13;93.34
68376;BME280;55318;52.068;5.188;2023-03-14T01:48:12;98887.0;;;11.02;93.16
68376;BME280;55318;52.068;5.188;2023-03-14T01:49:51;98887.0;;;11.2;92.69
68376;BME280;55318;52.068;5.188;2023-03-14T01:53:12;98891.0;;;11.15;91.87
68376;BME280;55318;52.068;5.188;2023-03-14T01:54:50;98893.0;;;11.19;91.75
68376;BME280;55318;52.068;5.188;2023-03-14T01:56:30;98897.0;;;11.29;91.07
68376;BME280;55318;52.068;5.188;2023-03-14T01:58:08;98892.0;;;11.16;91.08
68376;BME280;55318;52.068;5.188;2023-03-14T02:01:26;98882.0;;;11.18;90.65
68376;BME280;55318;52.068;5.188;2023-03-14T02:03:10;98886.0;;;11.2;90.59
68376;BME280;55318;52.068;5.188;2023-03-14T02:04:51;98877.0;;;11.18;90.64
68376;BME280;55318;52.068;5.188;2023-03-14T02:06:33;98874.0;;;11.22;90.75
68376;BME280;55318;52.068;5.188;2023-03-14T02:09:54;98871.0;;;11.28;90.2
68376;BME280;55318;52.068;5.188;2023-03-14T02:11:32;98873.0;;;11.16;90.72
68376;BME280;55318;52.068;5.188;2023-03-14T02:13:10;98867.0;;;11.28;90.43
68376;BME280;55318;52.068;5.188;2023-03-14T02:14:47;98872.0;;;11.18;90.69
68376;BME280;55318;52.068;5.188;2023-03-14T02:18:02;98872.0;;;11.18;90.92
68376;BME280;55318;52.068;5.188;2023-03-14T02:19:52;98869.0;;;11.34;90.21
68376;BME280;55318;52.068;5.188;2023-03-14T02:21:42;98868.0;;;11.43;89.8
68376;BME280;55318;52.068;5.188;2023-03-14T02:23:28;98855.0;;;11.18;90.49
68376;BME280;55318;52.068;5.188;2023-03-14T02:25:13;98858.0;;;11.22;90.51
68376;BME280;55318;52.068;5.188;2023-03-14T02:29:01;98847.0;;;11.12;90.73
68376;BME280;55318;52.068;5.188;2023-03-14T02:30:37;98845.0;;;11.2;90.44
68376;BME280;55318;52.068;5.188;2023-03-14T02:32:16;98855.0;;;11.08;90.71
68376;BME280;55318;52.068;5.188;2023-03-14T02:33:54;98862.0;;;11.11;90.88
68376;BME280;55318;52.068;5.188;2023-03-14T02:37:17;98844.0;;;11.0;91.26
68376;BME280;55318;52.068;5.188;2023-03-14T02:39:03;98848.0;;;11.2;90.76
68376;BME280;55318;52.068;5.188;2023-03-14T02:40:43;98849.0;;;11.07;90.9
68376;BME280;55318;52.068;5.188;2023-03-14T02:42:20;98847.0;;;11.18;90.67
68376;BME280;55318;52.068;5.188;2023-03-14T02:45:38;98857.0;;;11.25;90.49
68376;BME280;55318;52.068;5.188;2023-03-14T02:47:20;98840.0;;;11.19;90.5
68376;BME280;55318;52.068;5.188;2023-03-14T02:49:02;98835.0;;;11.24;90.67
68376;BME280;55318;52.068;5.188;2023-03-14T02:50:40;98836.0;;;11.19;90.75
68376;BME280;55318;52.068;5.188;2023-03-14T02:53:53;98848.0;;;11.13;91.15
68376;BME280;55318;52.068;5.188;2023-03-14T02:55:29;98845.0;;;11.11;91.38
68376;BME280;55318;52.068;5.188;2023-03-14T02:57:05;98845.0;;;11.14;91.44
68376;BME280;55318;52.068;5.188;2023-03-14T02:58:41;98836.0;;;11.23;91.1
68376;BME280;55318;52.068;5.188;2023-03-14T03:01:55;98833.0;;;11.14;91.34
68376;BME280;55318;52.068;5.188;2023-03-14T03:03:31;98841.0;;;11.12;91.53
68376;BME280;55318;52.068;5.188;2023-03-14T03:05:07;98837.0;;;11.26;91.03
68376;BME280;55318;52.068;5.188;2023-03-14T03:08:20;98832.0;;;11.26;90.87
68376;BME280;55318;52.068;5.188;2023-03-14T03:09:57;98833.0;;;11.21;91.02
68376;BME280;55318;52.068;5.188;2023-03-14T03:11:33;98831.0;;;11.26;90.97
68376;BME280;55318;52.068;5.188;2023-03-14T03:14:46;98831.0;;;11.26;90.8
68376;BME280;55318;52.068;5.188;2023-03-14T03:16:22;98831.0;;;11.21;90.64
68376;BME280;55318;52.068;5.188;2023-03-14T03:17:58;98831.0;;;11.21;90.53
68376;BME280;55318;52.068;5.188;2023-03-14T03:19:34;98830.0;;;11.33;90.22
68376;BME280;55318;52.068;5.188;2023-03-14T03:22:47;98835.0;;;11.16;90.26
68376;BME280;55318;52.068;5.188;2023-03-14T03:24:23;98830.0;;;11.29;90.1
68376;BME280;55318;52.068;5.188;2023-03-14T03:26:00;98820.0;;;11.21;90.22
68376;BME280;55318;52.068;5.188;2023-03-14T03:29:14;98812.0;;;11.24;90.05
68376;BME280;55318;52.068;5.188;2023-03-14T03:30:50;98814.0;;;11.31;89.94
68376;BME280;55318;52.068;5.188;2023-03-14T03:32:26;98814.0;;;11.37;89.17
68376;BME280;55318;52.068;5.188;2023-03-14T03:35:43;98807.0;;;11.23;89.83
68376;BME280;55318;52.068;5.188;2023-03-14T03:37:20;98805.0;;;11.3;89.41
68376;BME280;55318;52.068;5.188;2023-03-14T03:38:56;98794.0;;;11.25;89.31
68376;BME280;55318;52.068;5.188;2023-03-14T03:40:32;98810.0;;;11.29;89.14
68376;BME280;55318;52.068;5.188;2023-03-14T03:43:45;98815.0;;;11.31;89.03
68376;BME280;55318;52.068;5.188;2023-03-14T03:45:21;98810.0;;;11.27;88.71
68376;BME280;55318;52.068;5.188;2023-03-14T03:46:57;98812.0;;;11.37;88.59
68376;BME280;55318;52.068;5.188;2023-03-14T03:50:10;98808.0;;;11.37;88.14
68376;BME280;55318;52.068;5.188;2023-03-14T03:51:46;98808.0;;;11.31;87.8
68376;BME280;55318;52.068;5.188;2023-03-14T03:53:22;98806.0;;;11.43;87.7
68376;BME280;55318;52.068;5.188;2023-03-14T03:56:35;98805.0;;;11.41;87.2
68376;BME280;55318;52.068;5.188;2023-03-14T03:58:11;98806.0;;;11.53;86.76
68376;BME280;55318;52.068;5.188;2023-03-14T03:59:47;98805.0;;;11.42;86.83
68376;BME280;55318;52.068;5.188;2023-03-14T04:01:23;98809.0;;;11.47;87.03
68376;BME280;55318;52.068;5.188;2023-03-14T04:04:36;98803.0;;;11.5;86.56
68376;BME280;55318;52.068;5.188;2023-03-14T04:06:12;98807.0;;;11.53;86.61
68376;BME280;55318;52.068;5.188;2023-03-14T04:07:49;98805.0;;;11.66;86.2
68376;BME280;55318;52.068;5.188;2023-03-14T04:11:01;98802.0;;;11.57;85.98
68376;BME280;55318;52.068;5.188;2023-03-14T04:12:39;98799.0;;;11.49;86.47
68376;BME280;55318;52.068;5.188;2023-03-14T04:14:15;98808.0;;;11.55;86.33
68376;BME280;55318;52.068;5.188;2023-03-14T04:17:28;98797.0;;;11.59;85.97
68376;BME280;55318;52.068;5.188;2023-03-14T04:19:04;98807.0;;;11.47;86.29
68376;BME280;55318;52.068;5.188;2023-03-14T04:20:40;98810.0;;;11.51;86.29
68376;BME280;55318;52.068;5.188;2023-03-14T04:23:53;98808.0;;;11.6;86.15
68376;BME280;55318;52.068;5.188;2023-03-14T04:25:30;98808.0;;;11.58;86.37
68376;BME280;55318;52.068;5.188;2023-03-14T04:27:06;98805.0;;;11.69;85.97
68376;BME280;55318;52.068;5.188;2023-03-14T04:28:42;98805.0;;;11.61;86.15
68376;BME280;55318;52.068;5.188;2023-03-14T04:31:55;98813.0;;;11.59;86.31
68376;BME280;55318;52.068;5.188;2023-03-14T04:33:32;98812.0;;;11.56;86.74
68376;BME280;55318;52.068;5.188;2023-03-14T04:35:08;98802.0;;;11.59;86.38
68376;BME280;55318;52.068;5.188;2023-03-14T04:38:20;98805.0;;;11.65;86.55
68376;BME280;55318;52.068;5.188;2023-03-14T04:39:56;98798.0;;;11.68;86.68
68376;BME280;55318;52.068;5.188;2023-03-14T04:41:32;98790.0;;;11.66;86.97
68376;BME280;55318;52.068;5.188;2023-03-14T04:44:47;98793.0;;;11.63;87.04
68376;BME280;55318;52.068;5.188;2023-03-14T04:46:23;98787.0;;;11.65;86.7
68376;BME280;55318;52.068;5.188;2023-03-14T04:47:59;98786.0;;;11.66;86.63
68376;BME280;55318;52.068;5.188;2023-03-14T04:49:35;98789.0;;;11.81;86.4
68376;BME280;55318;52.068;5.188;2023-03-14T04:52:47;98803.0;;;11.68;86.7
68376;BME280;55318;52.068;5.188;2023-03-14T04:54:23;98787.0;;;11.61;87.16
68376;BME280;55318;52.068;5.188;2023-03-14T04:55:59;98793.0;;;11.66;87.58
68376;BME280;55318;52.068;5.188;2023-03-14T04:59:12;98794.0;;;11.58;87.84
68376;BME280;55318;52.068;5.188;2023-03-14T05:00:49;98791.0;;;11.69;88.47
68376;BME280;55318;52.068;5.188;2023-03-14T05:02:26;98797.0;;;11.74;88.45
68376;BME280;55318;52.068;5.188;2023-03-14T05:05:38;98797.0;;;11.41;89.98
68376;BME280;55318;52.068;5.188;2023-03-14T05:07:14;98799.0;;;11.51;90.84
68376;BME280;55318;52.068;5.188;2023-03-14T05:08:50;98787.0;;;11.41;91.65
68376;BME280;55318;52.068;5.188;2023-03-14T05:10:26;98790.0;;;11.36;92.39
68376;BME280;55318;52.068;5.188;2023-03-14T05:13:39;98792.0;;;11.32;92.91
68376;BME280;55318;52.068;5.188;2023-03-14T05:15:15;98777.0;;;11.34;93.21
68376;BME280;55318;52.068;5.188;2023-03-14T05:16:51;98784.0;;;11.3;93.53
68376;BME280;55318;52.068;5.188;2023-03-14T05:20:04;98774.0;;;11.34;93.47
68376;BME280;55318;52.068;5.188;2023-03-14T05:21:40;98771.0;;;11.36;93.5
68376;BME280;55318;52.068;5.188;2023-03-14T05:23:16;98767.0;;;11.4;93.71
68376;BME280;55318;52.068;5.188;2023-03-14T05:26:29;98769.0;;;11.25;94.12
68376;BME280;55318;52.068;5.188;2023-03-14T05:28:06;98771.0;;;11.18;94.5
68376;BME280;55318;52.068;5.188;2023-03-14T05:29:42;98769.0;;;11.29;94.63
68376;BME280;55318;52.068;5.188;2023-03-14T05:32:54;98763.0;;;11.24;94.59
68376;BME280;55318;52.068;5.188;2023-03-14T05:34:30;98771.0;;;11.26;95.01
68376;BME280;55318;52.068;5.188;2023-03-14T05:36:08;98773.0;;;11.16;95.41
68376;BME280;55318;52.068;5.188;2023-03-14T05:37:44;98770.0;;;11.14;95.73
68376;BME280;55318;52.068;5.188;2023-03-14T05:40:56;98776.0;;;11.17;95.74
68376;BME280;55318;52.068;5.188;2023-03-14T05:42:33;98769.0;;;11.08;96.18
68376;BME280;55318;52.068;5.188;2023-03-14T05:44:09;98767.0;;;11.02;96.38
68376;BME280;55318;52.068;5.188;2023-03-14T05:47:21;98769.0;;;11.08;96.42
68376;BME280;55318;52.068;5.188;2023-03-14T05:48:57;98768.0;;;11.02;96.97
68376;BME280;55318;52.068;5.188;2023-03-14T05:50:35;98767.0;;;10.95;97.4
68376;BME280;55318;52.068;5.188;2023-03-14T05:53:48;98768.0;;;11.07;97.16
68376;BME280;55318;52.068;5.188;2023-03-14T05:55:24;98769.0;;;10.99;97.33
68376;BME280;55318;52.068;5.188;2023-03-14T05:57:01;98768.0;;;10.95;97.88
68376;BME280;55318;52.068;5.188;2023-03-14T05:58:37;98769.0;;;10.89;98.36
68376;BME280;55318;52.068;5.188;2023-03-14T06:01:50;98769.0;;;11.0;97.99
68376;BME280;55318;52.068;5.188;2023-03-14T06:03:26;98766.0;;;10.97;98.49
68376;BME280;55318;52.068;5.188;2023-03-14T06:05:03;98771.0;;;10.97;98.33
68376;BME280;55318;52.068;5.188;2023-03-14T06:08:17;98773.0;;;10.93;98.56
68376;BME280;55318;52.068;5.188;2023-03-14T06:09:53;98780.0;;;10.97;98.99
68376;BME280;55318;52.068;5.188;2023-03-14T06:11:29;98778.0;;;10.88;99.69
68376;BME280;55318;52.068;5.188;2023-03-14T06:14:41;98768.0;;;10.88;99.64
68376;BME280;55318;52.068;5.188;2023-03-14T06:16:17;98773.0;;;11.0;99.22
68376;BME280;55318;52.068;5.188;2023-03-14T06:17:54;98769.0;;;11.04;99.55
68376;BME280;55318;52.068;5.188;2023-03-14T06:19:31;98775.0;;;10.94;100.0
68376;BME280;55318;52.068;5.188;2023-03-14T06:22:44;98807.0;;;10.99;99.96
68376;BME280;55318;52.068;5.188;2023-03-14T06:24:20;98824.0;;;10.93;100.0
68376;BME280;55318;52.068;5.188;2023-03-14T06:25:56;98842.0;;;10.78;99.7
68376;BME280;55318;52.068;5.188;2023-03-14T06:29:10;98841.0;;;10.77;98.18
68376;BME280;55318;52.068;5.188;2023-03-14T06:30:45;98853.0;;;10.65;96.96
68376;BME280;55318;52.068;5.188;2023-03-14T06:32:22;98858.0;;;10.63;95.8
68376;BME280;55318;52.068;5.188;2023-03-14T06:35:35;98869.0;;;10.4;94.81
68376;BME280;55318;52.068;5.188;2023-03-14T06:37:11;98872.0;;;10.31;95.14
68376;BME280;55318;52.068;5.188;2023-03-14T06:38:47;98881.0;;;10.3;95.2
68376;BME280;55318;52.068;5.188;2023-03-14T06:40:23;98887.0;;;10.23;95.45
68376;BME280;55318;52.068;5.188;2023-03-14T06:43:35;98893.0;;;10.13;95.73
68376;BME280;55318;52.068;5.188;2023-03-14T06:45:12;98898.0;;;10.19;95.5
68376;BME280;55318;52.068;5.188;2023-03-14T06:46:49;98906.0;;;9.97;95.42
68376;BME280;55318;52.068;5.188;2023-03-14T06:50:01;98913.0;;;10.01;95.95
68376;BME280;55318;52.068;5.188;2023-03-14T06:51:40;98907.0;;;9.88;95.91
68376;BME280;55318;52.068;5.188;2023-03-14T06:53:16;98912.0;;;9.81;96.61
68376;BME280;55318;52.068;5.188;2023-03-14T06:56:29;98918.0;;;9.89;96.75
68376;BME280;55318;52.068;5.188;2023-03-14T06:58:05;98925.0;;;9.91;96.52
68376;BME280;55318;52.068;5.188;2023-03-14T06:59:41;98930.0;;;9.99;96.3
68376;BME280;55318;52.068;5.188;2023-03-14T07:02:58;98940.0;;;9.84;96.5
68376;BME280;55318;52.068;5.188;2023-03-14T07:04:34;98942.0;;;9.83;96.74
68376;BME280;55318;52.068;5.188;2023-03-14T07:06:10;98951.0;;;9.92;96.6
68376;BME280;55318;52.068;5.188;2023-03-14T07:07:46;98959.0;;;9.92;96.72
68376;BME280;55318;52.068;5.188;2023-03-14T07:10:59;98963.0;;;10.08;96.57
68376;BME280;55318;52.068;5.188;2023-03-14T07:12:35;98970.0;;;10.06;96.59
68376;BME280;55318;52.068;5.188;2023-03-14T07:14:11;98978.0;;;10.1;96.25
68376;BME280;55318;52.068;5.188;2023-03-14T07:17:23;98993.0;;;9.98;96.39
68376;BME280;55318;52.068;5.188;2023-03-14T07:19:00;99001.0;;;9.96;96.79
68376;BME280;55318;52.068;5.188;2023-03-14T07:20:36;99011.0;;;9.92;96.9
68376;BME280;55318;52.068;5.188;2023-03-14T07:23:49;99023.0;;;9.96;96.68
68376;BME280;55318;52.068;5.188;2023-03-14T07:25:25;99031.0;;;9.83;96.3
68376;BME280;55318;52.068;5.188;2023-03-14T07:27:02;99040.0;;;9.91;95.48
68376;BME280;55318;52.068;5.188;2023-03-14T07:28:38;99037.0;;;9.57;95.66
68376;BME280;55318;52.068;5.188;2023-03-14T07:31:50;99047.0;;;9.6;95.87
68376;BME280;55318;52.068;5.188;2023-03-14T07:33:26;99055.0;;;9.4;96.23
68376;BME280;55318;52.068;5.188;2023-03-14T07:35:03;99064.0;;;9.36;96.47
68376;BME280;55318;52.068;5.188;2023-03-14T07:38:16;99073.0;;;9.57;96.1
68376;BME280;55318;52.068;5.188;2023-03-14T07:39:52;99080.0;;;9.47;96.17
68376;BME280;55318;52.068;5.188;2023-03-14T07:41:28;99095.0;;;9.43;96.38
68376;BME280;55318;52.068;5.188;2023-03-14T07:44:41;99099.0;;;9.48;95.92
68376;BME280;55318;52.068;5.188;2023-03-14T07:46:17;99110.0;;;9.46;95.83
68376;BME280;55318;52.068;5.188;2023-03-14T07:47:52;99115.0;;;9.55;95.7
68376;BME280;55318;52.068;5.188;2023-03-14T07:49:28;99114.0;;;9.43;95.57
68376;BME280;55318;52.068;5.188;2023-03-14T07:52:41;99131.0;;;9.33;95.6
68376;BME280;55318;52.068;5.188;2023-03-14T07:54:17;99143.0;;;9.26;95.9
68376;BME280;55318;52.068;5.188;2023-03-14T07:55:53;99156.0;;;9.38;95.34
68376;BME280;55318;52.068;5.188;2023-03-14T07:59:06;99162.0;;;9.18;95.61
68376;BME280;55318;52.068;5.188;2023-03-14T08:00:42;99167.0;;;9.18;95.77
68376;BME280;55318;52.068;5.188;2023-03-14T08:02:19;99186.0;;;9.23;95.69
68376;BME280;55318;52.068;5.188;2023-03-14T08:05:34;99196.0;;;9.17;96.3
68376;BME280;55318;52.068;5.188;2023-03-14T08:07:10;99199.0;;;9.24;96.17
68376;BME280;55318;52.068;5.188;2023-03-14T08:08:46;99205.0;;;9.26;95.46
68376;BME280;55318;52.068;5.188;2023-03-14T08:10:22;99214.0;;;9.24;95.58
68376;BME280;55318;52.068;5.188;2023-03-14T08:13:35;99240.0;;;9.25;95.85
68376;BME280;55318;52.068;5.188;2023-03-14T08:15:13;99243.0;;;8.83;94.3
68376;BME280;55318;52.068;5.188;2023-03-14T08:16:49;99249.0;;;8.48;95.01
68376;BME280;55318;52.068;5.188;2023-03-14T08:20:03;99276.0;;;8.25;95.37
68376;BME280;55318;52.068;5.188;2023-03-14T08:21:39;99285.0;;;8.24;95.74
68376;BME280;55318;52.068;5.188;2023-03-14T08:23:16;99294.0;;;8.19;96.03
68376;BME280;55318;52.068;5.188;2023-03-14T08:26:27;99301.0;;;7.92;97.19
68376;BME280;55318;52.068;5.188;2023-03-14T08:28:04;99310.0;;;7.9;96.76
68376;BME280;55318;52.068;5.188;2023-03-14T08:29:41;99322.0;;;7.47;99.41
68376;BME280;55318;52.068;5.188;2023-03-14T08:31:17;99324.0;;;7.47;99.0
68376;BME280;55318;52.068;5.188;2023-03-14T08:34:33;99337.0;;;7.54;99.13
68376;BME280;55318;52.068;5.188;2023-03-14T08:36:10;99345.0;;;7.24;99.1
68376;BME280;55318;52.068;5.188;2023-03-14T08:37:46;99362.0;;;7.35;99.66
68376;BME280;55318;52.068;5.188;2023-03-14T08:41:00;99370.0;;;7.18;99.38
68376;BME280;55318;52.068;5.188;2023-03-14T08:42:37;99375.0;;;7.2;100.0
68376;BME280;55318;52.068;5.188;2023-03-14T08:44:14;99384.0;;;7.12;99.87
68376;BME280;55318;52.068;5.188;2023-03-14T08:47:26;99385.0;;;7.42;99.58
68376;BME280;55318;52.068;5.188;2023-03-14T08:49:02;99396.0;;;7.54;98.3
68376;BME280;55318;52.068;5.188;2023-03-14T08:50:40;99402.0;;;7.6;97.87
68376;BME280;55318;52.068;5.188;2023-03-14T08:52:17;99411.0;;;7.26;97.01
68376;BME280;55318;52.068;5.188;2023-03-14T08:55:29;99419.0;;;7.39;97.12
68376;BME280;55318;52.068;5.188;2023-03-14T08:57:05;99430.0;;;7.64;97.36
68376;BME280;55318;52.068;5.188;2023-03-14T08:58:42;99441.0;;;7.81;96.82
68376;BME280;55318;52.068;5.188;2023-03-14T09:01:55;99451.0;;;7.89;95.71
68376;BME280;55318;52.068;5.188;2023-03-14T09:03:31;99455.0;;;7.98;95.55
68376;BME280;55318;52.068;5.188;2023-03-14T09:05:08;99462.0;;;7.97;94.36
68376;BME280;55318;52.068;5.188;2023-03-14T09:08:21;99468.0;;;7.94;94.41
68376;BME280;55318;52.068;5.188;2023-03-14T09:09:57;99480.0;;;7.74;93.9
68376;BME280;55318;52.068;5.188;2023-03-14T09:11:33;99490.0;;;7.89;93.7
68376;BME280;55318;52.068;5.188;2023-03-14T09:13:09;99507.0;;;7.89;92.61
68376;BME280;55318;52.068;5.188;2023-03-14T09:16:21;99505.0;;;7.92;92.26
68376;BME280;55318;52.068;5.188;2023-03-14T09:17:57;99503.0;;;8.0;91.8
68376;BME280;55318;52.068;5.188;2023-03-14T09:19:34;99519.0;;;7.98;91.64
68376;BME280;55318;52.068;5.188;2023-03-14T09:22:46;99530.0;;;7.92;90.36
68376;BME280;55318;52.068;5.188;2023-03-14T09:24:22;99543.0;;;7.87;91.32
68376;BME280;55318;52.068;5.188;2023-03-14T09:25:58;99551.0;;;7.92;90.8
68376;BME280;55318;52.068;5.188;2023-03-14T09:29:11;99559.0;;;7.85;90.27
68376;BME280;55318;52.068;5.188;2023-03-14T09:30:47;99571.0;;;8.01;90.44
68376;BME280;55318;52.068;5.188;2023-03-14T09:32:23;99572.0;;;7.97;90.56
68376;BME280;55318;52.068;5.188;2023-03-14T09:35:35;99580.0;;;7.96;90.49
68376;BME280;55318;52.068;5.188;2023-03-14T09:37:12;99589.0;;;8.24;89.61
68376;BME280;55318;52.068;5.188;2023-03-14T09:38:48;99600.0;;;8.33;88.95
68376;BME280;55318;52.068;5.188;2023-03-14T09:40:24;99614.0;;;8.18;87.66
68376;BME280;55318;52.068;5.188;2023-03-14T09:44:00;99623.0;;;8.19;88.67
68376;BME280;55318;52.068;5.188;2023-03-14T09:45:40;99628.0;;;7.99;89.06
68376;BME280;55318;52.068;5.188;2023-03-14T09:47:18;99655.0;;;8.09;89.9
68376;BME280;55318;52.068;5.188;2023-03-14T09:48:55;99646.0;;;8.08;90.17
68376;BME280;55318;52.068;5.188;2023-03-14T09:52:16;99651.0;;;7.92;89.5
68376;BME280;55318;52.068;5.188;2023-03-14T09:53:55;99663.0;;;7.82;89.63
68376;BME280;55318;52.068;5.188;2023-03-14T09:55:32;99671.0;;;8.03;89.0
68376;BME280;55318;52.068;5.188;2023-03-14T09:57:12;99675.0;;;8.09;89.33
68376;BME280;55318;52.068;5.188;2023-03-14T10:00:31;99675.0;;;7.96;89.74
68376;BME280;55318;52.068;5.188;2023-03-14T10:02:15;99688.0;;;8.24;90.15
68376;BME280;55318;52.068;5.188;2023-03-14T10:03:54;99694.0;;;8.41;89.14
68376;BME280;55318;52.068;5.188;2023-03-14T10:05:32;99698.0;;;8.31;89.52
68376;BME280;55318;52.068;5.188;2023-03-14T10:08:50;99711.0;;;8.4;89.7
68376;BME280;55318;52.068;5.188;2023-03-14T10:10:26;99717.0;;;8.18;89.51
68376;BME280;55318;52.068;5.188;2023-03-14T10:12:03;99730.0;;;8.18;89.93
68376;BME280;55318;52.068;5.188;2023-03-14T10:15:28;99742.0;;;8.14;88.88
68376;BME280;55318;52.068;5.188;2023-03-14T10:17:08;99750.0;;;8.02;90.14
68376;BME280;55318;52.068;5.188;2023-03-14T10:18:46;99763.0;;;7.86;90.71
68376;BME280;55318;52.068;5.188;2023-03-14T10:20:29;99762.0;;;7.94;91.37
68376;BME280;55318;52.068;5.188;2023-03-14T10:23:50;99781.0;;;7.97;91.7
68376;BME280;55318;52.068;5.188;2023-03-14T10:25:28;99789.0;;;7.87;92.43
68376;BME280;55318;52.068;5.188;2023-03-14T10:27:18;99796.0;;;7.92;92.45
68376;BME280;55318;52.068;5.188;2023-03-14T10:29:02;99797.0;;;7.94;91.63
68376;BME280;55318;52.068;5.188;2023-03-14T10:30:44;99798.0;;;7.97;91.92
68376;BME280;55318;52.068;5.188;2023-03-14T10:34:04;99812.0;;;7.97;90.11
68376;BME280;55318;52.068;5.188;2023-03-14T10:35:41;99815.0;;;8.06;89.59
68376;BME280;55318;52.068;5.188;2023-03-14T10:37:18;99817.0;;;8.24;90.09
68376;BME280;55318;52.068;5.188;2023-03-14T10:38:57;99828.0;;;8.31;88.29
68376;BME280;55318;52.068;5.188;2023-03-14T10:42:32;99835.0;;;8.43;87.75
68376;BME280;55318;52.068;5.188;2023-03-14T10:44:12;99846.0;;;8.49;85.99
68376;BME280;55318;52.068;5.188;2023-03-14T10:45:52;99856.0;;;8.56;85.04
68376;BME280;55318;52.068;5.188;2023-03-14T10:47:32;99856.0;;;8.82;85.64
68376;BME280;55318;52.068;5.188;2023-03-14T10:51:05;99868.0;;;8.81;83.55
68376;BME280;55318;52.068;5.188;2023-03-14T10:52:47;99878.0;;;8.82;81.38
68376;BME280;55318;52.068;5.188;2023-03-14T10:54:25;99892.0;;;8.93;82.37
68376;BME280;55318;52.068;5.188;2023-03-14T10:56:06;99912.0;;;8.6;79.87
68376;BME280;55318;52.068;5.188;2023-03-14T10:57:43;99930.0;;;8.44;79.95
68376;BME280;55318;52.068;5.188;2023-03-14T11:01:03;99940.0;;;8.14;80.64
68376;BME280;55318;52.068;5.188;2023-03-14T11:02:53;99940.0;;;7.95;81.12
68376;BME280;55318;52.068;5.188;2023-03-14T11:04:50;99934.0;;;7.91;79.02
68376;BME280;55318;52.068;5.188;2023-03-14T11:06:41;99942.0;;;7.94;80.77
68376;BME280;55318;52.068;5.188;2023-03-14T11:08:24;99949.0;;;7.95;81.27
68376;BME280;55318;52.068;5.188;2023-03-14T11:11:55;99965.0;;;8.22;82.53
68376;BME280;55318;52.068;5.188;2023-03-14T11:13:44;99972.0;;;8.26;82.19
68376;BME280;55318;52.068;5.188;2023-03-14T11:15:30;99978.0;;;8.28;79.66
68376;BME280;55318;52.068;5.188;2023-03-14T11:17:15;99986.0;;;8.31;79.24
68376;BME280;55318;52.068;5.188;2023-03-14T11:19:06;99995.0;;;8.51;80.05